createdAt,value
2017-05-30T00:00:16.981Z,60.25
2017-05-30T00:02:41.571Z,59.97
2017-05-30T00:05:06.159Z,60.81
2017-05-30T00:07:30.749Z,60.03
2017-05-30T00:09:55.343Z,60.13
2017-05-30T00:12:11.567Z,58.97
2017-05-30T00:14:19.284Z,59.36
2017-05-30T00:16:43.831Z,58.67
2017-05-30T00:18:59.918Z,59.09
2017-05-30T00:21:24.521Z,59.06
2017-05-30T00:23:49.105Z,58.77
2017-05-30T00:26:05.206Z,58.97
2017-05-30T00:28:29.804Z,59.16
2017-05-30T00:30:54.386Z,59.81
2017-05-30T00:32:55.868Z,58.42
2017-05-30T00:35:20.446Z,56.81
2017-05-30T00:37:36.532Z,54.86
2017-05-30T00:40:01.119Z,53.7
2017-05-30T00:42:25.725Z,51.47
2017-05-30T00:44:50.228Z,50.6
2017-05-30T00:46:51.700Z,49.15
2017-05-30T00:49:16.258Z,48.27
2017-05-30T00:51:40.849Z,47.33
2017-05-30T00:54:05.443Z,47.03
2017-05-30T00:56:30.038Z,47.25
2017-05-30T00:58:54.646Z,46.77
2017-05-30T01:01:19.244Z,46.67
2017-05-30T01:03:43.809Z,47.25
2017-05-30T01:06:08.412Z,46.86
2017-05-30T01:08:33.015Z,45.99
2017-05-30T01:10:57.602Z,46.38
2017-05-30T01:13:22.200Z,45.61
2017-05-30T01:15:46.799Z,46.21
2017-05-30T01:18:11.389Z,46.48
2017-05-30T01:20:21.477Z,47.25
2017-05-30T01:22:46.138Z,48
2017-05-30T01:25:10.729Z,48.39
2017-05-30T01:27:35.228Z,48.2
2017-05-30T01:29:51.318Z,48.49
2017-05-30T01:32:07.415Z,47.62
2017-05-30T01:34:32.009Z,47.42
2017-05-30T01:36:56.607Z,47.13
2017-05-30T01:39:06.652Z,47.42
2017-05-30T01:41:16.687Z,47.33
2017-05-30T01:43:41.295Z,47.23
2017-05-30T01:46:05.897Z,47.35
2017-05-30T01:48:30.495Z,46.94
2017-05-30T01:50:31.993Z,47.42
2017-05-30T01:52:48.132Z,47.16
2017-05-30T01:55:12.732Z,47.62
2017-05-30T01:57:28.856Z,47.45
2017-05-30T01:59:53.421Z,48.39
2017-05-30T02:02:09.518Z,47.64
2017-05-30T02:04:34.108Z,47.33
2017-05-30T02:06:58.706Z,47.25
2017-05-30T02:09:14.795Z,47.08
2017-05-30T02:11:39.388Z,46.96
2017-05-30T02:14:03.981Z,47.66
2017-05-30T02:16:28.581Z,47.57
2017-05-30T02:18:53.168Z,48.54
2017-05-30T02:21:17.764Z,47.76
2017-05-30T02:23:42.362Z,47.08
2017-05-30T02:26:06.961Z,48.3
2017-05-30T02:28:31.545Z,48.49
2017-05-30T02:30:56.140Z,49.34
2017-05-30T02:33:12.241Z,50.02
2017-05-30T02:35:36.830Z,50.12
2017-05-30T02:37:52.975Z,49.63
2017-05-30T02:40:17.419Z,50.31
2017-05-30T02:42:41.908Z,49.82
2017-05-30T02:45:06.401Z,50.12
2017-05-30T02:47:30.891Z,49.27
2017-05-30T02:49:55.384Z,50.19
2017-05-30T02:52:19.981Z,51.9
2017-05-30T02:54:30.060Z,52.22
2017-05-30T02:56:32.010Z,51.57
2017-05-30T02:58:56.590Z,52.44
2017-05-30T03:01:21.073Z,54.06
2017-05-30T03:03:37.175Z,55.1
2017-05-30T03:05:53.265Z,54.62
2017-05-30T03:08:17.756Z,54.06
2017-05-30T03:10:19.223Z,55
2017-05-30T03:12:35.316Z,54.06
2017-05-30T03:14:59.797Z,54.16
2017-05-30T03:17:24.295Z,54.09
2017-05-30T03:19:48.778Z,54.35
2017-05-30T03:22:04.760Z,54.64
2017-05-30T03:24:29.257Z,54.06
2017-05-30T03:26:53.755Z,54.48
2017-05-30T03:29:09.745Z,53.92
2017-05-30T03:31:34.239Z,54.19
2017-05-30T03:33:50.276Z,53.44
2017-05-30T03:36:00.419Z,53.05
2017-05-30T03:38:24.980Z,52.95
2017-05-30T03:40:49.475Z,53.24
2017-05-30T03:43:13.961Z,54.05
2017-05-30T03:45:30.054Z,53.47
2017-05-30T03:47:46.096Z,52.88
2017-05-30T03:50:10.645Z,53.27
2017-05-30T03:52:26.779Z,53.75
2017-05-30T03:54:51.334Z,53.95
2017-05-30T03:57:15.926Z,53.95
2017-05-30T03:59:40.520Z,53.75
2017-05-30T04:01:56.639Z,54.24
2017-05-30T04:04:21.218Z,54.44
2017-05-30T04:06:45.699Z,55.02
2017-05-30T04:08:55.740Z,54.53
2017-05-30T04:11:20.354Z,54.66
2017-05-30T04:13:44.941Z,53.97
2017-05-30T04:15:46.445Z,54.44
2017-05-30T04:18:02.590Z,54.63
2017-05-30T04:20:27.186Z,55.11
2017-05-30T04:22:51.785Z,54.34
2017-05-30T04:25:07.915Z,53.97
2017-05-30T04:27:32.469Z,54.14
2017-05-30T04:29:57.066Z,54.63
2017-05-30T04:32:21.664Z,54.05
2017-05-30T04:34:46.246Z,53.2
2017-05-30T04:37:10.846Z,53.37
2017-05-30T04:39:35.348Z,52.88
2017-05-30T04:41:59.941Z,53.44
2017-05-30T04:44:24.527Z,53.75
2017-05-30T04:46:26.519Z,52.98
2017-05-30T04:48:51.083Z,52.88
2017-05-30T04:51:15.677Z,53.17
2017-05-30T04:53:40.268Z,52.98
2017-05-30T04:56:04.765Z,53.37
2017-05-30T04:58:29.360Z,54.24
2017-05-30T05:00:53.950Z,53.83
2017-05-30T05:03:10.052Z,54.44
2017-05-30T05:05:26.136Z,54.8
2017-05-30T05:07:42.240Z,55.38
2017-05-30T05:10:06.827Z,55.18
2017-05-30T05:12:22.820Z,55.67
2017-05-30T05:14:47.309Z,55.35
2017-05-30T05:16:48.893Z,55.83
2017-05-30T05:19:13.460Z,55.47
2017-05-30T05:21:37.947Z,55.67
2017-05-30T05:23:54.039Z,54.96
2017-05-30T05:26:18.530Z,55.26
2017-05-30T05:28:43.022Z,54.67
2017-05-30T05:31:07.523Z,54.5
2017-05-30T05:33:23.617Z,53.73
2017-05-30T05:35:39.601Z,54.24
2017-05-30T05:38:04.099Z,53.75
2017-05-30T05:40:20.192Z,53.95
2017-05-30T05:42:36.200Z,54.02
2017-05-30T05:44:43.779Z,53.27
2017-05-30T05:47:08.265Z,53.95
2017-05-30T05:49:24.369Z,55.08
2017-05-30T05:51:48.855Z,54.82
2017-05-30T05:54:13.333Z,55.18
2017-05-30T05:56:29.345Z,55.77
2017-05-30T05:58:45.438Z,56.45
2017-05-30T06:01:09.935Z,57.58
2017-05-30T06:03:34.428Z,57.58
2017-05-30T06:05:50.514Z,57.87
2017-05-30T06:08:15.002Z,58.65
2017-05-30T06:10:31.100Z,58.94
2017-05-30T06:12:47.188Z,58.52
2017-05-30T06:15:12.708Z,58.55
2017-05-30T06:17:37.202Z,57.61
2017-05-30T06:20:01.686Z,57.51
2017-05-30T06:22:26.187Z,57.48
2017-05-30T06:24:50.779Z,57.68
2017-05-30T06:27:15.206Z,58.36
2017-05-30T06:29:39.765Z,58.16
2017-05-30T06:32:04.254Z,56.93
2017-05-30T06:34:28.742Z,58.52
2017-05-30T06:36:53.189Z,58.62
2017-05-30T06:39:17.672Z,58.62
2017-05-30T06:41:42.151Z,58.33
2017-05-30T06:43:43.638Z,58.42
2017-05-30T06:45:53.668Z,58.69
2017-05-30T06:48:09.705Z,59.07
2017-05-30T06:50:34.143Z,58.52
2017-05-30T06:52:44.198Z,57.68
2017-05-30T06:54:51.783Z,57.29
2017-05-30T06:57:16.255Z,58.14
2017-05-30T06:59:32.281Z,58.3
2017-05-30T07:01:56.726Z,58.72
2017-05-30T07:04:21.185Z,59.07
2017-05-30T07:06:45.637Z,58.78
2017-05-30T07:09:10.041Z,57.45
2017-05-30T07:11:26.027Z,56.23
2017-05-30T07:13:50.474Z,56.61
2017-05-30T07:16:14.940Z,57.09
2017-05-30T07:18:39.405Z,56.9
2017-05-30T07:21:04.904Z,55.11
2017-05-30T07:23:20.927Z,55.02
2017-05-30T07:25:45.432Z,54.66
2017-05-30T07:27:55.493Z,54.46
2017-05-30T07:30:20.041Z,53.42
2017-05-30T07:32:44.608Z,50.48
2017-05-30T07:35:00.728Z,50.68
2017-05-30T07:37:25.285Z,50.48
2017-05-30T07:39:41.397Z,51.14
2017-05-30T07:42:06.010Z,51.23
2017-05-30T07:44:22.179Z,49.24
2017-05-30T07:46:24.222Z,50.29
2017-05-30T07:48:48.917Z,50.68
2017-05-30T07:51:13.582Z,50.07
2017-05-30T07:53:38.266Z,50.56
2017-05-30T07:55:54.465Z,49.99
2017-05-30T07:58:19.168Z,49.34
2017-05-30T08:00:43.858Z,50.09
2017-05-30T08:03:08.537Z,50.75
2017-05-30T08:05:33.241Z,51.04
2017-05-30T08:07:57.939Z,49.92
2017-05-30T08:10:22.655Z,49.07
2017-05-30T08:12:47.372Z,48.49
2017-05-30T08:15:12.107Z,49.17
2017-05-30T08:17:28.394Z,48.22
2017-05-30T08:19:53.074Z,47.92
2017-05-30T08:22:17.850Z,46.41
2017-05-30T08:24:42.657Z,45.17
2017-05-30T08:27:07.465Z,44.8
2017-05-30T08:29:23.826Z,44.51
2017-05-30T08:31:40.171Z,45.54
2017-05-30T08:34:04.978Z,46.49
2017-05-30T08:36:29.809Z,46.69
2017-05-30T08:38:54.648Z,46.61
2017-05-30T08:41:19.481Z,47.27
2017-05-30T08:43:44.343Z,46.9
2017-05-30T08:46:00.679Z,44.87
2017-05-30T08:48:25.544Z,45.26
2017-05-30T08:50:50.407Z,43.65
2017-05-30T08:53:15.339Z,42.81
2017-05-30T08:55:16.968Z,41.56
2017-05-30T08:57:41.956Z,41.66
2017-05-30T08:59:58.478Z,42.79
2017-05-30T09:02:23.491Z,41
2017-05-30T09:04:48.498Z,41.56
2017-05-30T09:07:13.544Z,40.8
2017-05-30T09:09:30.119Z,41.76
2017-05-30T09:11:55.101Z,41.86
2017-05-30T09:14:20.163Z,41.35
2017-05-30T09:16:45.224Z,41.93
2017-05-30T09:19:10.285Z,41.66
2017-05-30T09:21:35.323Z,42.52
2017-05-30T09:23:51.900Z,41.83
2017-05-30T09:26:16.970Z,41.66
2017-05-30T09:28:41.994Z,39.09
2017-05-30T09:30:58.571Z,39.09
2017-05-30T09:33:15.138Z,38.7
2017-05-30T09:35:40.238Z,38.9
2017-05-30T09:37:50.469Z,38.9
2017-05-30T09:40:07.096Z,36.03
2017-05-30T09:42:32.248Z,33.51
2017-05-30T09:44:25.388Z,34.11
2017-05-30T09:46:50.617Z,34.66
2017-05-30T09:48:36.523Z,34.95
2017-05-30T09:51:01.830Z,32.77
2017-05-30T09:53:27.129Z,33.72
2017-05-30T09:55:52.465Z,33.34
2017-05-30T09:58:09.315Z,31.42
2017-05-30T10:00:34.700Z,32.28
2017-05-30T10:03:00.044Z,33.72
2017-05-30T10:05:25.432Z,34.67
2017-05-30T10:07:35.754Z,35.46
2017-05-30T10:10:01.117Z,36.22
2017-05-30T10:12:26.469Z,36.13
2017-05-30T10:14:51.812Z,38.72
2017-05-30T10:17:17.134Z,36.7
2017-05-30T10:19:42.461Z,36.72
2017-05-30T10:22:07.787Z,36.49
2017-05-30T10:24:33.086Z,36.13
2017-05-30T10:26:49.880Z,36.63
2017-05-30T10:29:15.172Z,34.59
2017-05-30T10:31:31.955Z,34.28
2017-05-30T10:33:57.219Z,34.28
2017-05-30T10:36:22.471Z,35.39
2017-05-30T10:38:39.260Z,35.03
2017-05-30T10:41:04.558Z,35.33
2017-05-30T10:43:29.847Z,34.46
2017-05-30T10:45:55.134Z,33.49
2017-05-30T10:48:11.909Z,33.26
2017-05-30T10:50:13.592Z,33.07
2017-05-30T10:52:38.921Z,33.72
2017-05-30T10:55:04.221Z,34.01
2017-05-30T10:57:29.499Z,33.62
2017-05-30T10:59:54.830Z,33.64
2017-05-30T11:02:05.632Z,34.05
2017-05-30T11:04:30.982Z,32.28
2017-05-30T11:06:56.268Z,33.38
2017-05-30T11:09:21.573Z,33.94
2017-05-30T11:11:46.881Z,33.92
2017-05-30T11:14:12.190Z,33.75
2017-05-30T11:16:37.471Z,33.85
2017-05-30T11:19:02.728Z,33.85
2017-05-30T11:21:28.004Z,33.26
2017-05-30T11:23:53.256Z,32.98
2017-05-30T11:26:10.042Z,32.3
2017-05-30T11:28:35.333Z,31.73
2017-05-30T11:31:00.607Z,30.68
2017-05-30T11:33:25.908Z,31.05
2017-05-30T11:35:42.742Z,30.27
2017-05-30T11:38:08.100Z,30.27
2017-05-30T11:40:33.459Z,29.59
2017-05-30T11:42:58.820Z,29.62
2017-05-30T11:45:09.064Z,29.06
2017-05-30T11:47:34.477Z,30.87
2017-05-30T11:49:36.173Z,30.47
2017-05-30T11:51:53.051Z,31.07
2017-05-30T11:54:18.424Z,30.38
2017-05-30T11:56:43.820Z,30.76
2017-05-30T11:59:09.250Z,29.59
2017-05-30T12:01:34.623Z,29.66
2017-05-30T12:03:59.989Z,30.04
2017-05-30T12:06:25.382Z,29.85
2017-05-30T12:08:50.790Z,30.8
2017-05-30T12:11:07.610Z,31.76
2017-05-30T12:13:32.926Z,31.38
2017-05-30T12:15:41.212Z,32.32
2017-05-30T12:17:57.994Z,32.32
2017-05-30T12:20:23.200Z,33.18
2017-05-30T12:22:48.420Z,33.28
2017-05-30T12:25:05.087Z,33.2
2017-05-30T12:27:30.294Z,32.81
2017-05-30T12:29:55.510Z,33.18
2017-05-30T12:32:12.197Z,33.1
2017-05-30T12:34:37.323Z,33.02
2017-05-30T12:37:02.469Z,32.25
2017-05-30T12:39:04.138Z,32.17
2017-05-30T12:41:20.857Z,31.99
2017-05-30T12:43:37.567Z,31.5
2017-05-30T12:46:02.744Z,31.51
2017-05-30T12:48:04.399Z,31.13
2017-05-30T12:50:29.676Z,31.51
2017-05-30T12:52:54.882Z,30.58
2017-05-30T12:55:20.131Z,31.89
2017-05-30T12:57:45.386Z,32.15
2017-05-30T13:00:10.632Z,33.61
2017-05-30T13:02:35.843Z,36.46
2017-05-30T13:04:29.012Z,35.61
2017-05-30T13:06:54.250Z,36.1
2017-05-30T13:09:19.418Z,36.18
2017-05-30T13:11:44.627Z,37.7
2017-05-30T13:14:09.779Z,38.24
2017-05-30T13:16:34.841Z,37.22
2017-05-30T13:18:36.490Z,36.93
2017-05-30T13:21:01.640Z,38.77
2017-05-30T13:23:26.736Z,40.99
2017-05-30T13:25:51.767Z,41.5
2017-05-30T13:28:16.770Z,42.07
2017-05-30T13:30:33.268Z,42.85
2017-05-30T13:32:49.775Z,44.19
2017-05-30T13:35:14.783Z,46.9
2017-05-30T13:37:39.742Z,48.14
2017-05-30T13:39:56.257Z,50.07
2017-05-30T13:42:12.686Z,51.26
2017-05-30T13:44:37.603Z,50.97
2017-05-30T13:47:02.481Z,49.51
2017-05-30T13:49:27.285Z,48.63
2017-05-30T13:51:28.865Z,47.2
2017-05-30T13:53:53.711Z,46.34
2017-05-30T13:56:18.489Z,45.57
2017-05-30T13:58:43.291Z,46.51
2017-05-30T14:01:08.085Z,49.37
2017-05-30T14:03:32.847Z,47.74
2017-05-30T14:05:49.142Z,49.32
2017-05-30T14:08:13.876Z,51.07
2017-05-30T14:10:38.556Z,53.14
2017-05-30T14:13:03.316Z,54.6
2017-05-30T14:15:28.037Z,53.52
2017-05-30T14:17:52.790Z,52.77
2017-05-30T14:20:17.543Z,54.86
2017-05-30T14:22:42.286Z,53.06
2017-05-30T14:25:07.015Z,53.33
2017-05-30T14:27:23.294Z,54.23
2017-05-30T14:29:48.040Z,54.01
2017-05-30T14:31:50.073Z,56.1
2017-05-30T14:34:14.841Z,56.65
2017-05-30T14:36:39.533Z,55.44
2017-05-30T14:38:55.814Z,54.5
2017-05-30T14:41:20.548Z,57.22
2017-05-30T14:43:45.276Z,56.37
2017-05-30T14:46:09.984Z,55.11
2017-05-30T14:48:34.679Z,55.4
2017-05-30T14:50:44.798Z,58.75
2017-05-30T14:53:09.524Z,59.59
2017-05-30T14:55:34.241Z,62
2017-05-30T14:57:58.953Z,60.99
2017-05-30T15:00:23.650Z,61.15
2017-05-30T15:02:48.322Z,60.67
2017-05-30T15:05:13.009Z,61.15
2017-05-30T15:07:37.682Z,61.08
2017-05-30T15:09:53.932Z,60.31
2017-05-30T15:12:18.640Z,60.38
2017-05-30T15:14:43.312Z,61.12
2017-05-30T15:17:07.974Z,61.12
2017-05-30T15:19:24.155Z,61.02
2017-05-30T15:21:25.686Z,60.67
2017-05-30T15:23:41.898Z,61.15
2017-05-30T15:26:06.521Z,62.23
2017-05-30T15:28:31.160Z,61.93
2017-05-30T15:30:55.738Z,62.38
2017-05-30T15:33:20.403Z,62.77
2017-05-30T15:35:45.003Z,62.74
2017-05-30T15:38:09.624Z,61.71
2017-05-30T15:40:34.248Z,62.55
2017-05-30T15:42:50.400Z,63.71
2017-05-30T15:45:06.555Z,64.46
2017-05-30T15:47:31.124Z,62.71
2017-05-30T15:49:47.257Z,64.14
2017-05-30T15:52:11.862Z,63.85
2017-05-30T15:54:36.402Z,63.95
2017-05-30T15:56:52.513Z,63.2
2017-05-30T15:59:17.079Z,63.29
2017-05-30T16:01:33.206Z,63.56
2017-05-30T16:03:57.761Z,63.68
2017-05-30T16:06:13.844Z,63.13
2017-05-30T16:08:38.413Z,64.23
2017-05-30T16:11:02.974Z,63.68
2017-05-30T16:13:27.565Z,64.36
2017-05-30T16:15:52.130Z,64.26
2017-05-30T16:18:16.679Z,63.71
2017-05-30T16:20:41.277Z,64.17
2017-05-30T16:23:05.915Z,64.92
2017-05-30T16:25:30.554Z,63.81
2017-05-30T16:27:55.193Z,62.68
2017-05-30T16:30:05.269Z,61.12
2017-05-30T16:32:25.648Z,60.67
2017-05-30T16:34:27.277Z,58.92
2017-05-30T16:36:51.989Z,58.26
2017-05-30T16:39:16.680Z,57.78
2017-05-30T16:41:41.394Z,58.07
2017-05-30T16:44:06.035Z,57.65
2017-05-30T16:46:30.676Z,57.36
2017-05-30T16:48:46.875Z,56.61
2017-05-30T16:51:11.588Z,55.86
2017-05-30T16:53:27.823Z,56.25
2017-05-30T16:55:44.101Z,55.6
2017-05-30T16:58:08.831Z,56.09
2017-05-30T17:00:33.535Z,55.69
2017-05-30T17:02:58.266Z,55.99
2017-05-30T17:05:23.012Z,55.23
2017-05-30T17:07:33.136Z,55.6
2017-05-30T17:09:43.261Z,55.04
2017-05-30T17:11:59.606Z,55.79
2017-05-30T17:14:24.393Z,56.54
2017-05-30T17:16:49.179Z,56.64
2017-05-30T17:19:13.909Z,56.74
2017-05-30T17:21:38.584Z,56.35
2017-05-30T17:23:46.361Z,55.69
2017-05-30T17:26:11.118Z,56.71
2017-05-30T17:28:35.876Z,58.72
2017-05-30T17:31:00.646Z,58.56
2017-05-30T17:33:25.385Z,58.53
2017-05-30T17:35:41.636Z,58.89
2017-05-30T17:38:06.319Z,58.79
2017-05-30T17:40:31.021Z,57.56
2017-05-30T17:42:55.698Z,56.03
2017-05-30T17:45:20.419Z,55.51
2017-05-30T17:49:13.261Z,55.32
2017-05-30T17:51:37.993Z,55.13
2017-05-30T17:54:02.699Z,54.93
2017-05-30T17:56:27.355Z,54.64
2017-05-30T17:58:52.008Z,55.49
2017-05-30T18:01:16.701Z,56.16
2017-05-30T18:03:41.376Z,56.56
2017-05-30T18:05:57.575Z,58.05
2017-05-30T18:08:22.231Z,57.79
2017-05-30T18:10:46.796Z,58.76
2017-05-30T18:13:11.450Z,58.57
2017-05-30T18:15:36.043Z,58.67
2017-05-30T18:18:00.655Z,59.51
2017-05-30T18:20:25.224Z,59.7
2017-05-30T18:22:26.744Z,59.8
2017-05-30T18:24:51.392Z,59.51
2017-05-30T18:27:15.971Z,58.86
2017-05-30T18:29:40.571Z,59.54
2017-05-30T18:32:05.137Z,59.9
2017-05-30T18:34:29.767Z,60.38
2017-05-30T18:36:54.347Z,60.87
2017-05-30T18:38:55.867Z,61.71
2017-05-30T18:41:20.480Z,61.52
2017-05-30T18:43:28.077Z,60.87
2017-05-30T18:45:29.690Z,61.91
2017-05-30T18:47:45.793Z,61.81
2017-05-30T18:50:10.316Z,62.29
2017-05-30T18:52:20.384Z,63.23
2017-05-30T18:54:36.521Z,63.36
2017-05-30T18:57:01.100Z,61.91
2017-05-30T18:59:17.183Z,61.42
2017-05-30T19:01:41.688Z,62.23
2017-05-30T19:03:57.743Z,61.38
2017-05-30T19:06:22.293Z,62.88
2017-05-30T19:08:38.390Z,63.36
2017-05-30T19:11:02.976Z,62.88
2017-05-30T19:13:27.577Z,62.81
2017-05-30T19:15:52.181Z,63.29
2017-05-30T19:17:45.747Z,62.71
2017-05-30T19:20:10.361Z,62.23
2017-05-30T19:22:35.726Z,62.62
2017-05-30T19:25:00.291Z,62.52
2017-05-30T19:27:24.852Z,62.52
2017-05-30T19:29:49.365Z,62.62
2017-05-30T19:32:13.900Z,62.52
2017-05-30T19:34:38.454Z,62.81
2017-05-30T19:37:03.032Z,63.39
2017-05-30T19:39:27.568Z,63.78
2017-05-30T19:41:43.650Z,65.47
2017-05-30T19:44:09.194Z,66.44
2017-05-30T19:46:34.692Z,65.47
2017-05-30T19:48:45.252Z,65.4
2017-05-30T19:50:55.852Z,65.47
2017-05-30T19:53:20.396Z,66.34
2017-05-30T19:55:44.878Z,65.59
2017-05-30T19:58:10.384Z,65.69
2017-05-30T20:00:26.428Z,65.95
2017-05-30T20:02:44.446Z,66.24
2017-05-30T20:05:08.938Z,68.15
2017-05-30T20:07:33.356Z,67.11
2017-05-30T20:09:49.398Z,66.92
2017-05-30T20:12:05.449Z,66.53
2017-05-30T20:14:29.923Z,67.11
2017-05-30T20:16:46.951Z,67.76
2017-05-30T20:19:12.443Z,67.02
2017-05-30T20:23:04.326Z,69.21
2017-05-30T20:25:28.838Z,69.21
2017-05-30T20:27:53.352Z,69.76
2017-05-30T20:30:09.391Z,70.15
2017-05-30T20:32:10.873Z,70.83
2017-05-30T20:34:26.883Z,70.73
2017-05-30T20:36:36.897Z,70.7
2017-05-30T20:39:01.353Z,70.34
2017-05-30T20:41:25.812Z,71.66
2017-05-30T20:43:50.261Z,72.15
2017-05-30T20:46:14.706Z,72.05
2017-05-30T20:48:30.682Z,73.66
2017-05-30T20:50:46.635Z,74.15
2017-05-30T20:53:11.038Z,73.85
2017-05-30T20:55:35.444Z,75.11
2017-05-30T20:57:59.855Z,75.89
2017-05-30T21:00:24.259Z,75.5
2017-05-30T21:02:48.696Z,75.21
2017-05-30T21:05:13.184Z,75.75
2017-05-30T21:07:37.677Z,75.95
2017-05-30T21:10:02.173Z,75.75
2017-05-30T21:12:26.570Z,75.89
2017-05-30T21:14:28.164Z,75.79
2017-05-30T21:16:52.592Z,76.04
2017-05-30T21:19:16.985Z,75.46
2017-05-30T21:21:41.378Z,75.75
2017-05-30T21:23:57.369Z,76.24
2017-05-30T21:26:21.760Z,76.33
2017-05-30T21:28:46.144Z,76.62
2017-05-30T21:31:10.529Z,76.33
2017-05-30T21:33:34.925Z,75.75
2017-05-30T21:35:59.307Z,75.75
2017-05-30T21:38:23.698Z,76.33
2017-05-30T21:40:48.098Z,75.95
2017-05-30T21:43:12.475Z,76.1
2017-05-30T21:45:36.884Z,76.97
2017-05-30T21:48:01.248Z,76.68
2017-05-30T21:50:25.657Z,77.84
2017-05-30T21:52:50.034Z,77.84
2017-05-30T21:55:05.967Z,77.84
2017-05-30T21:57:30.309Z,77.55
2017-05-30T21:59:54.703Z,77.61
2017-05-30T22:02:10.590Z,77.55
2017-05-30T22:04:34.876Z,77.36
2017-05-30T22:06:59.266Z,76.78
2017-05-30T22:09:23.657Z,76.97
2017-05-30T22:11:48.055Z,77.03
2017-05-30T22:14:12.435Z,78
2017-05-30T22:16:13.875Z,78.19
2017-05-30T22:18:38.273Z,77.71
2017-05-30T22:21:02.658Z,78.09
2017-05-30T22:23:27.063Z,77.71
2017-05-30T22:25:42.938Z,79.12
2017-05-30T22:28:07.225Z,78.19
2017-05-30T22:30:31.519Z,78.44
2017-05-30T22:32:55.904Z,78.19
2017-05-30T22:35:20.291Z,78.73
2017-05-30T22:37:44.575Z,78.92
2017-05-30T22:40:00.415Z,78.34
2017-05-30T22:42:24.760Z,78.25
2017-05-30T22:44:49.141Z,78.92
2017-05-30T22:47:13.436Z,79.75
2017-05-30T22:49:37.718Z,80.33
2017-05-30T22:52:02.006Z,80.53
2017-05-30T22:54:26.286Z,80.05
2017-05-30T22:56:42.188Z,79.5
2017-05-30T22:59:06.470Z,79.37
2017-05-30T23:01:30.755Z,79.47
2017-05-30T23:03:55.044Z,79.95
2017-05-30T23:06:19.330Z,79.08
2017-05-30T23:08:43.612Z,78.79
2017-05-30T23:11:07.900Z,79.08
2017-05-30T23:13:32.190Z,78.21
2017-05-30T23:15:33.624Z,78.15
2017-05-30T23:17:57.920Z,77.67
2017-05-30T23:20:22.212Z,77.57
2017-05-30T23:22:46.497Z,77.19
2017-05-30T23:25:10.790Z,76.12
2017-05-30T23:27:35.074Z,76.22
2017-05-30T23:29:59.361Z,74.62
2017-05-30T23:32:23.665Z,75.45
2017-05-30T23:34:39.536Z,74.87
2017-05-30T23:37:03.829Z,74.48
2017-05-30T23:39:11.212Z,74.38
2017-05-30T23:41:27.051Z,73.42
2017-05-30T23:43:51.381Z,74.68
2017-05-30T23:46:15.670Z,75.16
2017-05-30T23:48:39.980Z,74.19
2017-05-30T23:50:47.366Z,74.68
2017-05-30T23:53:11.643Z,74
2017-05-30T23:55:35.931Z,74
2017-05-30T23:58:00.218Z,73.42
